Estación Meteorológica Peña el Pijo (Robertgarden) [ 01/30/23 15:03:27 CET ]

Fecha Hora Presion(HPa) Temp (°C) Humedad % Rocio (°C) Viento ( m/s) Direccion Lluvia 1Hora(mm) Lluvia 24H(mm) LLuvia Total(mm)
2010-Dec-12 01:01:11 1012.000 3.7 87 1.7         12.43
2010-Dec-12 02:03:20 1011.500 3.8 86 1.7         12.43
2010-Dec-12 03:01:15 1011.000 3.1 87 1.1         12.43
2010-Dec-12 04:01:11 1010.400 2.3 87 0.3         12.43
2010-Dec-12 05:01:16 1009.800 2.1 89 0.4         12.43
2010-Dec-12 06:01:14 1009.300 1.7 89 0.0         12.43
2010-Dec-12 07:01:13 1009.000 2.2 90 0.7         12.43
2010-Dec-12 08:01:12 1008.600 2.6 90 1.1         12.43
2010-Dec-12 09:01:17 1008.400 3.1 90 1.6         12.43
2010-Dec-12 10:01:13 1008.200 5.3 88 3.5         12.43
2010-Dec-12 11:01:13 1008.300 9.5 78 5.8         12.43
2010-Dec-12 12:01:14 1007.800 14.9 60 7.2         12.43
2010-Dec-12 13:01:12 1006.400 18.9 49 8.0         12.43
2010-Dec-12 14:01:11 1005.500 20.4 42 7.0         12.43
2010-Dec-12 15:01:18 1004.700 19.6 36 4.0         12.43
2010-Dec-12 16:01:14 1004.600 18.3 37 3.3         12.43
2010-Dec-12 17:01:15 1004.900 14.3 51 4.3         12.43
2010-Dec-12 18:01:12 1004.900 10.9 63 4.1         12.43
2010-Dec-12 19:01:15 1005.000 8.3 69 3.0         12.43
2010-Dec-12 20:01:14 1004.900 6.6 75 2.5         12.43
2010-Dec-12 21:01:16 1004.800 6.8 78 3.2         12.43
2010-Dec-12 22:01:11 1004.600 6.4 78 2.8         12.43
2010-Dec-12 23:01:13 1004.300 6.2 79 2.8         12.43

Temperatura Máxima:20°    Temperatura Mínima:
Presión Máxima:1012.000 Hpa    Presión Mínima:1004.300 Hpa


Volver